Jordan, MT

12:11 AM MDT on August 28, 2015 (GMT -0600)
Pines | | Change Station
CLOSE
Current Station
Personal Weather Station
Location: Jordan, MT
Elevation: 2293 ft
Nearby Weather Stations

Elev 2293 ft 47.83 °N, 106.64 °W | Updated 7 seconds ago

Clear
Clear
69.3 °F
Feels Like 69.3 °F
N
0.0
Wind Variable Wind from SW
Gusts 0.0 mph

Today
High -- | Low -- °F
--% Chance of Precip.
Yesterday
High -- | Low -- °F
Precip. -- in
6:20 AM 7:55 PM
Waxing Gibbous, 97% visible
Pressure 29.84 in
Visibility 9.0 miles
Clouds Clear
Dew Point 50 °F
Humidity 50%
Rainfall 0.00 in
Snow Depth Not available.
UV 0.0 out of 12
Pollen 9.90 out of 12
Air Quality Not available.
Flu Activity Not available.
METAR KGGW 280553Z AUTO 29004KT 9SM CLR 20/13 A2987 RMK AO2 SLP103 T02000133 10317 20200 50001
Pressure 29.84 in
Visibility 9.0 miles
Clouds Clear
Dew Point 50 °F
Humidity 50%
Rainfall 0.00 in
Snow Depth Not available.
UV 0.0 out of 12
Pollen 9.90 out of 12
Air Quality Not available.
Flu Activity Not available.
METAR KGGW 280553Z AUTO 29004KT 9SM CLR 20/13 A2987 RMK AO2 SLP103 T02000133 10317 20200 50001

10-Day Weather Forecast

×

Almanac

Astronomy

Aug. 28, 2015 Rise Set
Actual Time
Civil Twilight
Nautical Twilight
Astronomical Twilight
Moon
Length of Visible Light
Length of Day
Tomorrow will be .
, % of the Moon is Illuminated

Today's Extremes

State Highs State Lows

Community

WunderPhotos

Upload Photos

1,850,341 photos uploaded!

WunderBlogs® & News

Nearby

Air Quality

  Air Quality AQ Index Pollutant
Not available.

Snow Depth

Station Depth Elevation

Earthquake Activity

City Distance Mag. Time & Date
Minimum magnitude displayed is 2.5.

Coastal Water Temperatures

Place Temperature

Stations

Nearby Weather Stations

Station Location Temp. Windchill Dew Point Humidity Wind Precip. Elev Updated Type